Sofia, Bulgaria
Current Conditions -  °F | °C
As of 4:30 PM on Sunday 23 Nov 2014 (Local Time) from LBSF Reporting Station
Overcast Overcast  
Wind Chill: 41°   Ceiling: 1700
Heat Index: 41°   Visibility: 6mi
Dew Point: 36°   Wind: 2mph
Humidity: 81%   Direction: NA
Pressure: 30.36"   Gusts: NA
Location:  42.69°N, 23.31°E
Report Text: LBSF 231330Z VRB01MPS 9999 OVC017 05/02 Q1028 NOSIG
Loading
Personal Weather Stations






























Interactive Weather Map New forecast layout! Learn more

10-Day Weather Forecast

Advertisements
Track Severe Weather on mobile